Latest Weather Observations for Mount Crawford

IDS60801

Issued at 9:02 pm CST Thursday 29 September 2016 (issued every 30 minutes, with the page automatically refreshed every 10 minutes)

About weather observations | Map of weather stations | Latest weather observations for SA | Other Formats
Station Details ID: 023878 Name: MOUNT CRAWFORD AWS Lat: -34.73 Lon: 138.93 Height: 525.0 m
Data from the previous 72 hours. | See also: Recent months at Mount Crawford
Date/Time
CST
Temp
°C
App
Temp
°C
Dew
Point
°C
Rel
Hum
%
Delta-T
°C
Wind Press
QNH
hPa
Press
MSL
hPa
Rain since
9am
mm
Dir  Spd
km/h
Gust
km/h
Spd
kts
Gust
kts
29/09:00pm 7.3 - - - - SSW 56 85 30 46 991.7 991.2 31.6
29/08:30pm 7.3 - - - - SSW 56 87 30 47 990.7 990.2 29.8
29/08:00pm 7.5 - - - - SSW 54 96 29 52 990.5 990.0 27.0
29/07:59pm 7.5 - - - - SSW 54 96 29 52 990.5 990.0 26.8
29/07:30pm 7.5 -3.0 7.5 100 0.0 SSW 52 78 28 42 990.3 989.8 24.8
29/07:00pm 7.6 -3.8 7.6 100 0.0 SSW 57 91 31 49 989.6 989.1 23.2
29/06:30pm 7.5 -2.2 7.5 100 0.0 SSW 48 74 26 40 988.9 988.3 21.6
29/06:00pm 7.7 -3.1 7.7 100 0.0 SSW 54 91 29 49 988.3 987.8 20.8
29/05:30pm 8.0 -2.3 8.0 100 0.0 SSW 52 95 28 51 987.7 987.2 18.6
29/05:15pm 8.1 -1.8 8.1 100 0.0 SSW 50 91 27 49 986.5 986.0 17.8
29/05:00pm 7.8 -1.1 7.8 100 0.0 SSW 44 72 24 39 987.0 986.4 16.4
29/04:30pm 8.2 -0.4 8.2 100 0.0 SW 43 69 23 37 986.3 985.8 15.2
29/04:00pm 8.6 -0.1 8.6 100 0.0 SW 44 82 24 44 984.6 984.1 13.0
29/03:30pm 8.6 -0.8 8.6 100 0.0 SW 48 80 26 43 983.9 983.3 12.4
29/03:20pm 8.0 2.2 8.0 100 0.0 SW 28 54 15 29 984.3 983.7 11.8
29/03:00pm 6.8 0.7 6.8 100 0.0 SW 28 43 15 23 985.1 984.5 9.4
29/02:30pm 7.7 0.5 7.7 100 0.0 SW 35 54 19 29 985.2 984.6 7.0
29/02:00pm 9.7 2.6 9.6 99 0.1 SW 37 56 20 30 985.0 984.4 5.6
29/01:30pm 9.3 2.1 9.2 99 0.1 SW 37 57 20 31 984.9 984.3 5.6
29/01:06pm 8.3 2.2 8.3 100 0.0 SW 30 48 16 26 985.0 984.4 5.6
29/01:00pm 7.8 2.0 7.8 100 0.0 SW 28 44 15 24 985.1 984.5 5.6
29/12:30pm 9.7 1.4 9.4 98 0.2 SW 43 61 23 33 984.9 984.3 4.8
29/12:00pm 9.5 -0.1 9.5 100 0.0 SW 50 74 27 40 984.4 983.9 4.8
29/11:58am 9.8 0.3 9.8 100 0.0 SW 50 80 27 43 984.5 984.0 4.8
29/11:36am 7.2 - - - - SW 57 85 31 46 983.5 982.9 4.8
29/11:35am 7.2 - - - - SW 56 85 30 46 983.4 982.8 4.8
29/11:30am 8.4 - - - - SW 48 80 26 43 983.7 983.1 4.8
29/11:25am 9.1 - - - - SW 48 87 26 47 983.7 983.1 4.8
29/11:24am 9.1 - - - - SW 48 87 26 47 984.0 983.4 4.8
29/11:00am 7.6 - - - - SW 56 91 30 49 983.1 982.5 4.8
29/10:30am 6.8 - - - - SW 46 74 25 40 982.5 981.9 4.4
29/10:00am 6.7 - - - - SW 50 78 27 42 981.9 981.3 1.0
29/09:30am 6.7 - - - - SW 54 85 29 46 980.0 979.4 0.4
29/09:00am 6.7 - - - - SW 52 76 28 41 979.4 978.7 30.8
29/08:30am 6.6 - - - - SW 52 80 28 43 978.2 977.6 30.2
29/08:28am 6.6 - - - - SW 50 80 27 43 978.2 977.6 30.0
29/08:00am 6.2 - - - - WSW 43 70 23 38 977.9 977.3 29.4
29/07:50am 6.1 - - - - W 41 57 22 31 978.0 977.4 28.8
29/07:48am 6.1 - - - - W 41 69 22 37 978.2 977.6 28.8
29/07:30am 5.4 - - - - WNW 41 67 22 36 978.0 977.4 28.6
29/07:00am 4.6 -6.5 4.6 100 0.0 NW 52 76 28 41 978.0 977.4 26.6
29/06:30am 4.3 -7.6 4.3 100 0.0 NW 56 76 30 41 978.7 978.1 24.4
29/06:00am 4.0 -8.1 4.0 100 0.0 NW 57 87 31 47 980.2 979.6 23.0
29/05:30am 4.0 -7.6 4.0 100 0.0 NNW 54 78 29 42 981.2 980.6 22.4
29/05:00am 4.0 -7.6 4.0 100 0.0 NNW 54 74 29 40 982.2 981.6 21.4
29/04:30am 4.0 -7.2 4.0 100 0.0 NW 52 78 28 42 983.1 982.5 21.0
29/04:00am 4.1 -5.6 4.1 100 0.0 NW 44 76 24 41 984.0 983.4 21.0
29/03:30am 4.2 -6.2 4.2 100 0.0 NW 48 69 26 37 984.6 984.1 20.6
29/03:00am 4.5 -4.5 4.5 100 0.0 NW 41 61 22 33 985.3 984.7 20.0
29/02:30am 4.4 -4.6 4.4 100 0.0 NW 41 61 22 33 986.3 985.8 19.8
29/02:00am 4.5 -4.1 4.5 100 0.0 NW 39 61 21 33 987.2 986.6 19.8
29/01:30am 4.4 -4.2 4.4 100 0.0 NW 39 57 21 31 988.4 987.9 19.8
29/01:00am 4.3 -4.4 4.3 100 0.0 NW 39 69 21 37 989.2 988.6 19.8
29/12:30am 4.5 -3.0 4.5 100 0.0 NW 33 54 18 29 989.8 989.3 19.4
29/12:00am 4.9 -2.9 4.9 100 0.0 NW 35 54 19 29 990.5 990.0 19.4
 
Date/Time
CST
Temp
°C
App
Temp
°C
Dew
Point
°C
Rel
Hum
%
Delta-T
°C
Wind Press
QNH
hPa
Press
MSL
hPa
Rain since
9am
mm
Dir  Spd
km/h
Gust
km/h
Spd
kts
Gust
kts
28/11:30pm 5.1 -2.1 5.1 100 0.0 NW 32 52 17 28 991.2 990.7 19.4
28/11:00pm 5.2 -2.2 5.2 100 0.0 WNW 33 52 18 28 991.3 990.8 19.4
28/10:44pm 5.4 -1.9 5.4 100 0.0 WNW 33 56 18 30 991.5 991.0 19.4
28/10:30pm 5.5 -1.6 5.5 100 0.0 WNW 32 48 17 26 991.4 990.9 19.4
28/10:02pm 5.6 -1.5 5.6 100 0.0 WNW 32 50 17 27 991.7 991.2 19.4
28/10:00pm 5.6 -1.7 5.6 100 0.0 WNW 33 50 18 27 991.6 991.1 19.4
28/09:39pm 6.4 -0.7 6.4 100 0.0 W 33 54 18 29 991.4 990.9 19.4
28/09:30pm 6.6 -0.5 6.6 100 0.0 WSW 33 48 18 26 991.0 990.5 19.4
28/09:01pm 6.6 -0.8 6.6 100 0.0 W 35 54 19 29 991.0 990.5 19.2
28/09:00pm 6.5 -1.3 6.5 100 0.0 W 37 54 20 29 991.0 990.5 19.2
28/08:42pm 6.3 -2.7 6.3 100 0.0 WSW 43 61 23 33 990.3 989.8 19.2
28/08:38pm 6.3 -3.7 6.3 100 0.0 WSW 48 69 26 37 990.4 989.9 19.2
28/08:30pm 6.2 -5.5 6.2 100 0.0 WSW 57 91 31 49 990.1 989.6 18.8
28/08:28pm 6.2 -4.9 6.2 100 0.0 WSW 54 91 29 49 989.5 989.0 18.8
28/08:27pm 6.2 -4.6 6.2 100 0.0 W 52 91 28 49 989.4 988.9 18.8
28/08:00pm 6.8 -1.7 6.8 100 0.0 W 41 69 22 37 990.2 989.7 18.4
28/07:30pm 7.8 -1.1 7.8 100 0.0 W 44 76 24 41 991.0 990.5 18.4
28/07:00pm 8.3 -1.2 8.3 100 0.0 W 48 69 26 37 990.4 989.9 16.0
28/06:30pm 8.5 -0.6 8.5 100 0.0 WSW 46 67 25 36 990.0 989.5 15.6
28/06:00pm 9.3 -1.1 9.3 100 0.0 WSW 54 87 29 47 990.1 989.6 15.2
28/05:55pm 9.7 -0.2 9.7 100 0.0 WSW 52 87 28 47 989.4 988.9 15.2
28/05:30pm 10.9 2.5 10.9 100 0.0 SW 46 69 25 37 989.1 988.5 15.2
28/05:19pm 11.9 6.2 11.9 100 0.0 W 33 80 18 43 988.3 987.8 15.2
28/05:16pm 12.6 7.7 12.6 100 0.0 NW 30 52 16 28 988.7 988.2 15.0
28/05:00pm 12.2 7.9 12.2 100 0.0 NE 26 33 14 18 988.2 987.7 14.6
28/04:30pm 11.1 5.2 11.1 100 0.0 ENE 33 44 18 24 987.9 987.4 14.2
28/04:08pm 10.5 2.3 10.5 100 0.0 NE 44 63 24 34 989.2 988.6 12.6
28/04:00pm 10.5 1.6 10.5 100 0.0 NE 48 61 26 33 988.4 987.9 12.2
28/03:35pm 10.7 2.7 10.5 99 0.1 ENE 43 61 23 33 989.3 988.8 12.0
28/03:30pm 10.9 2.0 10.7 99 0.1 ENE 48 61 26 33 989.6 989.1 12.0
28/03:14pm 11.3 2.5 11.1 99 0.1 NE 48 69 26 37 990.5 990.0 12.0
28/03:00pm 11.0 2.2 10.8 99 0.1 NE 48 63 26 34 990.9 990.3 12.0
28/02:30pm 11.2 2.3 10.7 97 0.3 NE 48 69 26 37 992.1 991.6 12.0
28/02:00pm 10.2 0.8 10.2 100 0.0 NE 50 69 27 37 993.5 993.0 12.0
28/01:34pm 9.1 -0.2 9.1 100 0.0 ENE 48 67 26 36 995.0 994.5 12.0
28/01:30pm 9.1 0.2 9.1 100 0.0 ENE 46 63 25 34 995.1 994.6 12.0
28/01:00pm 8.4 1.4 8.4 100 0.0 ENE 35 54 19 29 997.2 996.7 11.0
28/12:30pm 8.2 1.5 8.1 99 0.0 NE 33 52 18 28 999.0 998.5 8.2
28/12:14pm 8.4 1.4 8.3 99 0.0 NE 35 54 19 29 1000.0 999.6 6.0
28/12:00pm 8.3 1.6 8.0 98 0.1 NE 33 41 18 22 1000.6 1000.2 4.0
28/11:31am 9.5 1.4 6.8 83 1.3 NNE 39 57 21 31 1001.0 1000.6 0.6
28/11:30am 9.5 0.9 6.6 82 1.4 NE 41 57 22 31 1000.8 1000.5 0.6
28/11:05am 11.5 1.6 4.9 64 3.1 NE 46 65 25 35 999.4 999.0 0.0
28/11:00am 11.5 2.1 5.2 65 3.0 NE 44 59 24 32 999.4 999.0 0.0
28/10:30am 12.5 3.7 5.4 62 3.4 NE 41 59 22 32 1000.8 1000.5 0.0
28/10:25am 12.7 3.5 6.3 65 3.1 NE 44 63 24 34 1001.4 1001.0 0.0
28/10:00am 13.4 4.8 6.3 62 3.5 NE 41 57 22 31 1001.9 1001.5 0.0
28/09:49am 13.3 5.0 5.9 61 3.6 NE 39 57 21 31 1002.3 1001.9 0.0
28/09:30am 12.9 3.8 5.8 62 3.5 NE 43 57 23 31 1003.1 1002.7 0.0
28/09:00am 12.5 3.2 5.0 60 3.6 NE 43 63 23 34 1004.1 1003.8 0.0
28/08:34am 12.2 3.7 5.1 62 3.4 NE 39 57 21 31 1005.0 1004.6 0.0
28/08:30am 12.0 3.5 5.0 62 3.3 NE 39 50 21 27 1005.1 1004.7 0.0
28/08:00am 11.3 3.1 5.0 65 3.0 NE 37 54 20 29 1005.4 1005.0 0.0
28/07:48am 11.0 3.3 5.5 69 2.6 NE 35 54 19 29 1005.7 1005.4 0.0
28/07:30am 10.5 2.7 5.1 69 2.5 NE 35 48 19 26 1005.9 1005.6 0.0
28/07:00am 9.5 1.6 4.3 70 2.4 NE 35 44 19 24 1006.4 1006.1 0.0
28/06:30am 8.6 1.1 4.4 75 1.9 NE 33 43 18 23 1006.8 1006.5 0.0
28/06:00am 8.1 0.9 4.9 80 1.5 NE 32 41 17 22 1007.5 1007.2 0.0
28/05:30am 8.1 2.1 5.2 82 1.3 NE 26 37 14 20 1007.7 1007.4 0.0
28/05:00am 7.8 2.3 5.8 87 0.9 NE 24 28 13 15 1008.0 1007.7 0.0
28/04:30am 7.7 2.2 5.8 88 0.9 NE 24 32 13 17 1008.3 1008.0 0.0
28/04:00am 7.9 2.0 5.9 87 0.9 NE 26 33 14 18 1008.4 1008.1 0.0
28/03:30am 7.8 2.9 4.9 82 1.3 NE 20 28 11 15 1008.9 1008.7 0.0
28/03:00am 8.2 3.3 4.0 75 1.9 NE 19 26 10 14 1009.4 1009.1 0.0
28/02:30am 8.3 3.6 3.4 71 2.2 NE 17 24 9 13 1009.9 1009.6 0.0
28/02:00am 8.8 4.1 3.4 69 2.4 NNE 17 22 9 12 1010.3 1010.0 0.0
28/01:30am 8.8 4.2 3.6 70 2.3 NNE 17 20 9 11 1010.8 1010.6 0.0
28/01:00am 8.2 4.0 4.0 75 1.9 NNE 15 19 8 10 1011.4 1011.1 0.0
28/12:30am 7.4 3.7 4.4 81 1.3 NE 13 15 7 8 1011.7 1011.4 0.0
28/12:00am 8.6 5.3 4.4 75 1.9 NNE 11 13 6 7 1011.8 1011.5 0.0
 
Date/Time
CST
Temp
°C
App
Temp
°C
Dew
Point
°C
Rel
Hum
%
Delta-T
°C
Wind Press
QNH
hPa
Press
MSL
hPa
Rain since
9am
mm
Dir  Spd
km/h
Gust
km/h
Spd
kts
Gust
kts
27/11:30pm 8.6 6.1 4.6 76 1.8 NE 7 9 4 5 1011.7 1011.4 0.0
27/11:00pm 9.0 6.1 4.6 74 2.0 N 9 11 5 6 1012.1 1011.8 0.0
27/10:30pm 9.2 5.6 4.8 74 2.0 NNW 13 15 7 8 1012.4 1012.2 0.0
27/10:00pm 8.6 5.5 5.7 82 1.4 NNW 11 13 6 7 1012.6 1012.4 0.0
27/09:30pm 9.0 5.2 5.7 80 1.5 NW 15 17 8 9 1012.8 1012.6 0.0
27/09:00pm 9.0 5.2 5.9 81 1.5 WNW 15 19 8 10 1013.1 1012.8 0.0
27/08:30pm 7.6 5.0 6.2 91 0.7 NNE 9 11 5 6 1013.3 1013.0 0.0
27/08:00pm 8.2 4.8 6.0 86 1.0 WSW 13 17 7 9 1013.3 1013.0 0.0
27/07:30pm 8.3 5.4 6.3 87 0.9 WSW 11 15 6 8 1013.5 1013.2 0.0
27/07:00pm 8.6 5.3 6.2 85 1.1 WSW 13 17 7 9 1013.3 1013.0 0.0
27/06:30pm 9.1 6.1 6.2 82 1.4 WSW 11 17 6 9 1013.5 1013.2 0.0
27/06:00pm 10.2 5.6 6.5 78 1.8 WSW 20 26 11 14 1013.4 1013.1 0.0
27/05:30pm 10.9 6.3 6.3 73 2.2 W 20 26 11 14 1013.2 1012.9 0.0
27/05:00pm 11.6 7.0 6.5 71 2.5 WSW 20 32 11 17 1013.3 1013.0 0.0
27/04:30pm 11.2 7.1 6.3 72 2.4 W 17 28 9 15 1013.3 1013.0 0.0
27/04:00pm 11.8 6.8 6.5 70 2.6 WSW 22 32 12 17 1013.3 1013.0 0.0
27/03:30pm 11.6 6.6 6.3 70 2.6 W 22 32 12 17 1013.4 1013.1 0.0
27/03:00pm 11.1 5.7 6.3 72 2.3 WSW 24 35 13 19 1013.6 1013.3 0.0
27/02:30pm 11.4 6.4 6.3 71 2.5 WSW 22 35 12 19 1013.8 1013.6 0.0
27/02:00pm 10.7 4.4 5.7 71 2.4 WSW 28 41 15 22 1013.8 1013.6 0.0
27/01:30pm 11.7 5.5 6.2 69 2.7 W 28 43 15 23 1013.9 1013.7 0.0
27/01:00pm 10.6 5.1 5.8 72 2.3 WSW 24 35 13 19 1014.2 1014.0 0.0
27/12:30pm 11.4 5.5 5.7 68 2.7 WSW 26 37 14 20 1014.5 1014.3 0.0
27/12:00pm 10.7 5.2 5.7 71 2.4 WSW 24 35 13 19 1014.5 1014.3 0.0
27/11:30am 9.4 3.9 5.9 79 1.7 W 24 33 13 18 1014.8 1014.6 0.0
27/11:00am 9.7 5.5 7.3 85 1.2 WSW 19 30 10 16 1015.1 1014.8 0.0
27/10:30am 9.4 3.9 5.9 79 1.7 WSW 24 37 13 20 1015.2 1014.9 0.0
27/10:00am 8.8 3.5 6.9 88 0.9 WSW 24 39 13 21 1015.5 1015.3 0.0
27/09:30am 8.5 2.6 7.3 92 0.6 WSW 28 37 15 20 1015.4 1015.1 0.0
27/09:00am 8.2 3.2 7.9 98 0.1 WSW 24 32 13 17 1015.3 1015.0 0.2
27/08:30am 7.3 3.0 7.2 99 0.0 WSW 19 28 10 15 1015.3 1015.0 0.2
27/08:00am 6.6 2.0 6.5 99 0.0 WSW 20 28 11 15 1014.9 1014.7 0.2
27/07:30am 5.8 2.0 5.7 99 0.0 W 15 22 8 12 1014.7 1014.5 0.2
27/07:00am 5.4 1.9 5.4 100 0.0 W 13 19 7 10 1014.5 1014.3 0.2
27/06:30am 5.0 1.4 5.0 100 0.0 W 13 20 7 11 1014.2 1014.0 0.2
27/06:00am 4.9 1.3 4.9 100 0.0 WSW 13 19 7 10 1013.9 1013.7 0.2
27/05:30am 4.8 1.2 4.8 100 0.0 WSW 13 20 7 11 1013.6 1013.3 0.2
27/05:00am 5.0 1.4 5.0 100 0.0 SW 13 17 7 9 1013.3 1013.0 0.2
27/04:30am 5.1 1.1 5.0 99 0.0 SW 15 20 8 11 1012.8 1012.6 0.2
27/04:00am 5.2 1.3 5.2 100 0.0 SW 15 22 8 12 1012.7 1012.5 0.0
27/03:30am 5.3 1.0 5.3 100 0.0 SW 17 24 9 13 1012.5 1012.3 0.0
27/03:00am 5.5 0.9 5.5 100 0.0 SW 19 24 10 13 1012.6 1012.4 0.0
27/02:30am 6.1 1.6 6.1 100 0.0 SW 19 28 10 15 1012.7 1012.5 0.0
27/02:00am 6.2 1.7 6.1 99 0.0 SW 19 26 10 14 1012.9 1012.7 0.0
27/01:30am 6.1 1.4 6.0 99 0.0 SW 20 28 11 15 1012.8 1012.6 0.0
27/01:00am 6.3 1.2 6.2 99 0.0 SW 22 35 12 19 1012.8 1012.6 0.0
27/12:30am 6.3 0.9 6.2 99 0.0 SW 24 33 13 18 1013.3 1013.0 0.0
27/12:00am 6.4 1.4 6.3 99 0.0 SW 22 32 12 17 1013.3 1013.0 0.0
 
Date/Time
CST
Temp
°C
App
Temp
°C
Dew
Point
°C
Rel
Hum
%
Delta-T
°C
Wind Press
QNH
hPa
Press
MSL
hPa
Rain since
9am
mm
Dir  Spd
km/h
Gust
km/h
Spd
kts
Gust
kts
26/11:30pm 6.5 1.1 6.4 99 0.0 SW 24 33 13 18 1013.6 1013.3 0.0
26/11:00pm 6.5 1.5 6.4 99 0.0 SW 22 33 12 18 1013.7 1013.4 0.0
26/10:30pm 6.6 1.2 6.5 99 0.0 SW 24 35 13 19 1013.5 1013.2 0.0
26/10:00pm 6.8 2.1 6.2 96 0.3 SW 20 33 11 18 1013.7 1013.4 0.0
26/09:30pm 6.8 1.6 5.7 93 0.5 SW 22 33 12 18 1013.7 1013.4 0.0

Other Formats:

Comma delimited format used in spreadsheet applications
http://www.bom.gov.au/fwo/IDS60801/IDS60801.94678.axf

JavaScript Object Notation format (JSON) in row-major order
http://www.bom.gov.au/fwo/IDS60801/IDS60801.94678.json